Time;durP1;ratioP1;P1;durP2;ratioP2;P2;SDS_P1;SDS_P2;PMS_P1;PMS_P2;Temp;Humidity;BMP_temperature;BMP_pressure;BME280_temperature;BME280_humidity;BME280_pressure;Samples;Min_cycle;Max_cycle;Signal;HPM_P1;HPM_P2
2023/06/27 00:00:28;;;;;;;4.03;1.53;;;19.50;89.80;;;20.30;67.40;98509.16;5025103;28;20465;-79
2023/06/27 00:02:58;;;;;;;6.07;1.80;;;19.40;90.00;;;20.29;67.33;98516.31;5024057;28;20991;-80
2023/06/27 00:05:28;;;;;;;5.43;2.13;;;19.40;90.00;;;20.27;67.54;98520.22;5023791;28;21038;-79
2023/06/27 00:07:57;;;;;;;2.57;1.47;;;19.30;90.30;;;20.27;67.63;98518.38;5023746;28;22048;-80
2023/06/27 00:10:25;;;;;;;4.23;1.80;;;19.30;90.00;;;20.21;67.57;98516.66;5024200;28;21501;-79
2023/06/27 00:12:56;;;;;;;7.90;1.83;;;19.30;90.10;;;20.16;68.03;98510.44;5023863;28;20588;-79
2023/06/27 00:15:26;;;;;;;7.17;2.07;;;19.30;90.20;;;20.19;68.00;98516.09;5024495;28;20454;-79
2023/06/27 00:17:56;;;;;;;6.20;1.97;;;19.20;90.10;;;20.16;68.79;98516.56;5024356;28;20469;-79
2023/06/27 00:20:25;;;;;;;1.97;1.57;;;19.20;90.00;;;20.15;68.51;98519.44;5023383;28;20458;-79
2023/06/27 00:22:54;;;;;;;5.03;1.63;;;19.20;90.20;;;20.07;69.09;98520.63;5024088;28;20461;-80
2023/06/27 00:25:22;;;;;;;4.10;1.50;;;19.10;90.50;;;20.03;69.50;98522.13;5023964;28;20465;-79
2023/06/27 00:27:53;;;;;;;4.40;2.20;;;19.10;90.50;;;19.87;70.54;98521.03;5023070;28;20528;-80
2023/06/27 00:30:22;;;;;;;4.20;1.97;;;19.10;90.50;;;19.76;71.38;98526.38;5023695;28;20486;-79
2023/06/27 00:32:51;;;;;;;5.40;2.13;;;19.00;90.70;;;19.74;71.42;98525.81;5024021;28;20468;-79
2023/06/27 00:35:22;;;;;;;4.20;2.10;;;18.90;90.70;;;19.71;71.26;98523.63;5023400;28;20458;-79
2023/06/27 00:37:51;;;;;;;2.53;1.90;;;18.90;90.60;;;19.61;72.20;98524.19;5024214;28;20458;-79
2023/06/27 00:40:20;;;;;;;2.87;1.87;;;18.80;90.70;;;19.55;72.70;98525.13;5024739;28;20480;-80
2023/06/27 00:42:48;;;;;;;5.47;2.00;;;18.80;90.90;;;19.47;73.06;98528.94;5025171;28;20462;-80
2023/06/27 00:45:18;;;;;;;6.90;2.57;;;18.70;90.90;;;19.52;72.79;98523.75;5024720;28;20466;-79
2023/06/27 00:47:46;;;;;;;10.43;1.90;;;18.70;91.10;;;19.43;74.23;98527.00;5023395;28;20494;-80
2023/06/27 00:50:15;;;;;;;8.03;1.80;;;18.60;91.40;;;19.38;75.13;98524.19;5023092;28;20490;-79
2023/06/27 00:52:47;;;;;;;4.70;2.07;;;18.60;91.50;;;19.31;75.58;98524.31;5024776;28;20516;-80
2023/06/27 00:55:17;;;;;;;3.30;1.70;;;18.50;91.40;;;19.24;76.33;98517.50;5028287;28;20536;-80
2023/06/27 00:57:47;;;;;;;6.10;2.00;;;18.40;91.50;;;19.18;76.68;98516.59;5029000;28;20500;-79
2023/06/27 01:00:18;;;;;;;4.00;2.23;;;18.40;91.50;;;19.12;77.24;98517.50;5028241;28;21292;-79
2023/06/27 01:02:46;;;;;;;4.67;1.90;;;18.30;91.50;;;19.08;77.19;98519.00;5028028;28;20536;-79
2023/06/27 01:05:19;;;;;;;4.67;2.10;;;18.30;91.70;;;18.92;78.74;98525.78;5028465;28;20454;-80
2023/06/27 01:07:57;;;;;;;7.23;2.03;;;18.20;92.10;;;18.79;79.83;98522.53;5026063;28;20848;-79
2023/06/27 01:10:47;;;;;;;5.70;2.17;;;18.10;91.80;;;18.80;79.71;98524.16;5026716;28;20508;-80
2023/06/27 01:13:24;;;;;;;4.23;1.87;;;18.10;91.80;;;18.78;79.46;98527.00;5027714;28;20466;-80
2023/06/27 01:15:54;;;;;;;3.50;1.97;;;18.10;91.80;;;18.68;80.56;98528.59;5027532;28;20464;-80
2023/06/27 01:18:26;;;;;;;4.63;2.10;;;18.00;92.20;;;18.65;80.56;98529.88;5026535;28;20462;-79
2023/06/27 01:20:58;;;;;;;9.70;2.07;;;17.90;92.20;;;18.64;80.60;98528.25;5027592;28;20470;-79
2023/06/27 01:23:34;;;;;;;4.40;1.40;;;17.90;92.20;;;18.65;80.52;98526.41;5026556;28;20469;-79
2023/06/27 01:26:08;;;;;;;2.33;1.60;;;17.80;92.10;;;18.58;80.82;98531.81;5027401;28;20471;-79
2023/06/27 01:28:37;;;;;;;6.07;2.00;;;17.80;92.40;;;18.52;81.42;98533.53;5026911;28;20454;-80
2023/06/27 01:31:06;;;;;;;6.53;2.30;;;17.70;92.50;;;18.37;82.54;98538.38;5025905;28;20497;-79
2023/06/27 01:33:44;;;;;;;4.10;1.80;;;17.70;92.60;;;18.31;83.33;98534.00;5028326;28;20466;-79
2023/06/27 01:36:20;;;;;;;5.97;2.27;;;17.60;92.70;;;18.27;83.05;98538.13;5027535;28;20515;-80
2023/06/27 01:38:57;;;;;;;5.67;1.80;;;17.50;92.70;;;18.21;83.87;98541.66;5026748;28;20464;-79
2023/06/27 01:41:31;;;;;;;6.40;1.80;;;17.50;92.90;;;18.18;84.12;98536.00;5025818;28;20512;-79
2023/06/27 01:44:04;;;;;;;4.63;2.10;;;17.40;92.90;;;18.12;84.90;98539.56;5027212;28;20851;-79
2023/06/27 01:46:34;;;;;;;4.33;2.33;;;17.30;93.10;;;18.12;84.86;98534.25;5027810;28;20466;-80
2023/06/27 01:49:04;;;;;;;16.10;2.70;;;17.30;93.20;;;18.09;84.70;98530.19;5026272;28;21012;-79
2023/06/27 01:51:33;;;;;;;7.63;2.20;;;17.30;93.10;;;18.00;85.62;98532.34;5027561;28;20592;-80
2023/06/27 01:54:02;;;;;;;9.80;1.83;;;17.20;93.10;;;17.87;86.91;98542.28;5027136;28;20466;-79
2023/06/27 01:56:32;;;;;;;2.70;1.83;;;17.20;93.30;;;17.77;87.91;98532.19;5027424;28;20450;-79
2023/06/27 01:59:02;;;;;;;5.27;1.97;;;17.10;93.50;;;17.84;87.32;98530.28;5027195;28;20972;-79
2023/06/27 02:01:30;;;;;;;3.83;2.10;;;17.10;93.70;;;17.92;86.25;98534.47;5026604;28;20464;-80
2023/06/27 02:04:01;;;;;;;6.00;2.00;;;17.10;93.40;;;17.86;86.92;98533.53;5026146;28;20462;-79
2023/06/27 02:06:29;;;;;;;4.83;2.30;;;17.00;93.50;;;17.87;86.53;98540.47;5026612;28;20461;-79
2023/06/27 02:08:58;;;;;;;6.00;1.60;;;17.00;93.60;;;17.89;86.28;98534.94;5025722;28;20578;-79
2023/06/27 02:11:26;;;;;;;22.67;2.20;;;17.00;93.50;;;17.77;87.42;98539.34;5025144;28;20498;-80
2023/06/27 02:13:56;;;;;;;4.50;2.23;;;16.90;93.80;;;17.69;88.13;98534.34;5026308;28;20462;-79
2023/06/27 02:16:25;;;;;;;6.70;2.50;;;16.90;93.70;;;17.69;88.13;98535.16;5026368;28;20979;-80
2023/06/27 02:18:53;;;;;;;5.07;2.00;;;16.90;93.70;;;17.74;87.83;98532.66;5025763;28;21015;-80
2023/06/27 02:21:22;;;;;;;3.17;2.10;;;16.90;93.90;;;17.72;87.71;98531.25;5024689;28;20466;-79
2023/06/27 02:23:50;;;;;;;3.30;1.80;;;16.90;93.70;;;17.67;88.47;98542.50;5025982;28;20976;-79
2023/06/27 02:26:19;;;;;;;8.50;1.97;;;16.80;93.80;;;17.53;89.52;98535.69;5026183;28;20488;-79
2023/06/27 02:28:47;;;;;;;2.97;1.83;;;16.80;93.90;;;17.44;90.11;98532.53;5024776;28;20466;-79
2023/06/27 02:31:18;;;;;;;8.73;1.83;;;16.70;94.00;;;17.42;90.97;98529.28;5025945;28;20862;-79
2023/06/27 02:33:47;;;;;;;4.50;2.20;;;16.70;94.20;;;17.49;90.23;98530.03;5026192;28;20454;-80
2023/06/27 02:36:16;;;;;;;4.60;2.50;;;16.70;94.30;;;17.51;89.95;98520.06;5025839;28;20470;-80
2023/06/27 02:38:45;;;;;;;4.80;1.93;;;16.70;94.20;;;17.51;90.23;98530.63;5026403;28;20462;-80
2023/06/27 02:41:14;;;;;;;4.17;2.33;;;16.70;94.30;;;17.49;90.26;98529.25;5026788;28;21033;-80
2023/06/27 02:43:43;;;;;;;4.40;2.10;;;16.70;94.30;;;17.46;90.47;98538.41;5026434;28;20458;-80
2023/06/27 02:46:11;;;;;;;5.97;1.93;;;16.70;94.20;;;17.49;90.06;98530.03;5025749;28;20554;-80
2023/06/27 02:48:42;;;;;;;3.43;2.23;;;16.60;94.00;;;17.42;90.49;98536.44;5025666;28;20473;-81
2023/06/27 02:51:11;;;;;;;4.07;2.07;;;16.60;94.20;;;17.39;91.14;98537.66;5025808;28;21195;-80
2023/06/27 02:53:41;;;;;;;5.40;2.77;;;16.60;94.20;;;17.41;90.76;98546.19;5025212;28;20562;-80
2023/06/27 02:56:09;;;;;;;3.10;1.80;;;16.50;94.30;;;17.38;91.05;98546.63;5026032;28;20473;-80
2023/06/27 02:58:39;;;;;;;3.50;1.90;;;16.60;94.30;;;17.42;90.81;98550.44;5026480;28;20545;-80
2023/06/27 03:01:07;;;;;;;6.23;2.47;;;16.60;94.50;;;17.40;90.91;98552.50;5025859;28;20849;-80
2023/06/27 03:03:36;;;;;;;9.13;2.20;;;16.50;94.20;;;17.36;91.42;98553.16;5026074;28;20476;-80
2023/06/27 03:06:08;;;;;;;4.30;1.87;;;16.60;94.30;;;17.43;90.74;98560.00;5026605;28;20498;-79
2023/06/27 03:08:38;;;;;;;6.27;2.37;;;16.50;94.30;;;17.33;91.28;98556.22;5025634;28;20950;-83
2023/06/27 03:11:07;;;;;;;4.63;2.80;;;16.50;94.40;;;17.28;91.50;98548.97;5023168;28;20470;-80
2023/06/27 03:13:36;;;;;;;4.87;1.80;;;16.50;94.60;;;17.25;91.79;98544.09;5022964;28;20466;-80
2023/06/27 03:16:06;;;;;;;3.73;2.17;;;16.40;94.30;;;17.15;92.41;98545.63;5021799;28;20501;-80
2023/06/27 03:18:35;;;;;;;4.70;2.30;;;16.40;94.40;;;17.07;92.98;98541.44;5024316;28;20465;-83
2023/06/27 03:21:06;;;;;;;6.23;1.90;;;16.30;94.20;;;16.94;94.06;98544.16;5027424;28;21852;-89
2023/06/27 03:23:35;;;;;;;8.93;2.50;;;16.30;94.40;;;16.97;94.13;98556.97;5023746;28;20477;-84
2023/06/27 03:26:06;;;;;;;7.30;2.20;;;16.30;94.80;;;16.91;94.45;98560.44;5021749;28;20903;-83
2023/06/27 03:28:34;;;;;;;13.67;2.03;;;16.20;94.70;;;16.89;94.78;98563.31;5022862;28;20467;-84
2023/06/27 03:31:04;;;;;;;6.17;2.87;;;16.20;94.90;;;16.94;94.63;98554.72;5024878;28;20549;-88
2023/06/27 03:33:32;;;;;;;10.23;3.00;;;16.10;95.00;;;16.95;94.63;98559.00;5023970;28;20564;-82
2023/06/27 03:36:03;;;;;;;13.60;2.20;;;16.20;95.00;;;16.96;94.75;98558.78;5024360;28;20520;-81
2023/06/27 03:38:33;;;;;;;4.00;2.10;;;16.20;95.30;;;16.88;95.34;98558.22;5025657;28;20470;-82
2023/06/27 03:41:07;;;;;;;7.13;2.43;;;16.10;95.00;;;16.89;95.53;98554.56;5025426;28;20470;-83
2023/06/27 03:43:36;;;;;;;2.27;1.87;;;16.10;95.00;;;16.87;95.99;98554.00;5025848;28;20465;-82
2023/06/27 03:46:05;;;;;;;2.90;1.87;;;16.10;94.90;;;16.85;95.83;98553.38;5023261;28;20458;-83
2023/06/27 03:48:33;;;;;;;4.53;2.13;;;16.10;95.10;;;16.75;96.77;98553.84;5024777;28;21149;-83
2023/06/27 03:51:03;;;;;;;2.30;1.77;;;16.10;95.00;;;16.71;97.37;98554.50;5025883;28;20474;-83
2023/06/27 03:53:33;;;;;;;4.77;2.20;;;16.00;95.10;;;16.72;97.65;98556.13;5024642;28;20604;-83
2023/06/27 03:56:03;;;;;;;6.10;2.07;;;16.00;95.30;;;16.76;97.21;98559.97;5008372;28;20466;-83
2023/06/27 03:58:32;;;;;;;5.33;2.37;;;16.00;95.40;;;16.80;96.72;98569.88;5022949;28;20466;-83
2023/06/27 04:01:02;;;;;;;4.83;2.00;;;16.00;95.40;;;16.78;97.34;98568.47;5022342;28;20890;-86
2023/06/27 04:03:31;;;;;;;5.23;2.50;;;16.00;95.30;;;16.79;97.42;98580.66;5022249;28;20466;-84
2023/06/27 04:06:01;;;;;;;6.87;3.13;;;16.10;95.40;;;16.79;97.49;98580.66;5022874;28;20492;-83
2023/06/27 04:08:30;;;;;;;3.27;2.10;;;16.00;95.40;;;16.84;97.21;98575.53;5022085;28;20501;-83
2023/06/27 04:11:00;;;;;;;9.43;2.37;;;16.00;95.50;;;16.90;97.11;98572.06;5023660;28;20466;-84
2023/06/27 04:13:30;;;;;;;4.23;2.10;;;16.10;95.60;;;16.96;96.26;98572.00;5024238;28;20581;-83
2023/06/27 04:15:58;;;;;;;4.47;2.40;;;16.10;95.50;;;16.95;95.78;98574.84;5027893;28;20508;-83
2023/06/27 04:18:27;;;;;;;5.63;2.50;;;16.10;95.30;;;16.98;95.88;98569.94;5022014;28;20469;-83
2023/06/27 04:20:57;;;;;;;6.00;2.33;;;16.10;95.40;;;16.99;96.43;98573.41;5023620;28;20473;-82
2023/06/27 04:23:25;;;;;;;4.33;2.47;;;16.10;95.50;;;17.03;96.21;98577.22;5026388;28;20478;-82
2023/06/27 04:26:07;;;;;;;3.73;2.07;;;16.10;95.50;;;17.01;96.42;98573.97;5024045;28;20457;-83
2023/06/27 04:28:36;;;;;;;3.50;2.33;;;16.20;95.50;;;17.01;96.67;98576.63;5024980;28;20822;-85
2023/06/27 04:31:05;;;;;;;5.57;2.47;;;16.20;95.40;;;16.96;96.84;98576.47;5027561;28;20465;-83
2023/06/27 04:33:39;;;;;;;4.13;2.37;;;16.20;95.40;;;16.93;97.20;98572.44;5026011;28;20501;-83
2023/06/27 04:36:09;;;;;;;8.40;2.10;;;16.10;95.80;;;16.79;98.37;98564.81;5027526;28;20478;-86
2023/06/27 04:38:38;;;;;;;3.33;2.00;;;16.10;95.50;;;16.81;98.54;98575.97;5031918;28;20465;-85
2023/06/27 04:41:10;;;;;;;4.80;1.93;;;16.10;95.70;;;16.75;98.72;98568.91;5031011;28;20469;-85
2023/06/27 04:43:40;;;;;;;4.30;2.20;;;16.00;95.60;;;16.74;99.27;98572.53;5030016;28;20549;-86
2023/06/27 04:46:09;;;;;;;2.70;2.13;;;16.00;95.80;;;16.78;99.30;98585.13;5031691;28;20457;-85
2023/06/27 04:48:38;;;;;;;4.60;2.00;;;16.00;96.00;;;16.76;99.82;98581.09;5032665;28;20466;-85
2023/06/27 04:51:07;;;;;;;3.73;2.27;;;16.00;96.00;;;16.62;100.00;98579.53;5031772;28;20457;-85
2023/06/27 04:53:37;;;;;;;2.60;2.00;;;16.00;95.90;;;16.47;100.00;98577.97;5031866;28;20502;-85
2023/06/27 04:56:07;;;;;;;3.17;2.20;;;15.90;96.00;;;16.50;100.00;98576.72;5032475;28;20466;-85
2023/06/27 04:58:38;;;;;;;5.20;2.20;;;15.90;96.30;;;16.44;100.00;98578.41;5033046;28;20490;-84
2023/06/27 05:01:06;;;;;;;5.20;2.10;;;15.80;96.20;;;16.48;100.00;98576.16;5033013;28;21005;-85
2023/06/27 05:03:37;;;;;;;5.30;2.07;;;15.80;96.50;;;16.53;100.00;98566.56;5031373;28;20976;-85
2023/06/27 05:06:07;;;;;;;4.43;2.00;;;15.80;96.40;;;16.63;100.00;98565.28;5031551;28;20476;-84
2023/06/27 05:08:37;;;;;;;4.27;2.37;;;15.80;96.60;;;16.68;100.00;98573.41;5031390;28;21165;-85
2023/06/27 05:11:06;;;;;;;6.93;2.30;;;15.90;96.40;;;16.69;100.00;98573.22;5031383;28;20478;-85
2023/06/27 05:13:37;;;;;;;4.30;2.83;;;15.90;96.00;;;16.69;100.00;98573.22;5032094;28;20540;-85
2023/06/27 05:16:06;;;;;;;4.60;2.40;;;15.90;96.10;;;16.69;100.00;98580.31;5030937;28;20493;-85
2023/06/27 05:18:35;;;;;;;3.87;2.30;;;15.90;96.20;;;16.72;100.00;98580.69;5033258;28;20535;-85
2023/06/27 05:21:05;;;;;;;4.10;1.93;;;16.00;96.40;;;16.80;100.00;98583.06;5031063;28;20465;-84
2023/06/27 05:23:34;;;;;;;4.47;2.40;;;16.00;96.30;;;16.80;100.00;98590.22;5032135;28;20489;-84
2023/06/27 05:26:03;;;;;;;10.37;2.70;;;16.00;96.30;;;16.88;100.00;98584.66;5030247;28;20479;-85
2023/06/27 05:28:32;;;;;;;4.30;2.37;;;16.10;96.20;;;16.91;100.00;98578.94;5030940;28;20466;-84
2023/06/27 05:31:03;;;;;;;3.90;2.50;;;16.10;96.20;;;17.02;100.00;98580.91;5031051;28;20466;-84
2023/06/27 05:33:33;;;;;;;5.83;2.07;;;16.10;96.10;;;17.06;99.92;98576.81;5031357;28;20493;-84
2023/06/27 05:36:02;;;;;;;5.93;1.83;;;16.20;96.00;;;17.14;99.56;98573.91;5032783;28;20474;-85
2023/06/27 05:38:31;;;;;;;3.80;2.30;;;16.20;96.00;;;17.16;98.97;98579.78;5032881;28;20472;-85
2023/06/27 05:41:01;;;;;;;6.80;2.63;;;16.30;96.00;;;17.17;99.06;98576.09;5030700;28;20466;-85
2023/06/27 05:43:30;;;;;;;3.00;2.10;;;16.30;96.00;;;17.25;98.65;98573.16;5031137;28;20458;-86
2023/06/27 05:46:00;;;;;;;3.37;2.20;;;16.30;96.00;;;17.28;98.81;98579.88;5031692;28;20486;-86
2023/06/27 05:48:30;;;;;;;3.30;2.30;;;16.40;96.00;;;17.22;99.43;98584.19;5030426;28;20466;-86
2023/06/27 05:51:00;;;;;;;10.03;2.07;;;16.40;95.90;;;17.25;99.79;98570.53;5031478;28;20516;-85
2023/06/27 05:53:28;;;;;;;4.57;2.17;;;16.40;96.00;;;17.23;100.00;98575.25;5031952;28;20485;-85
2023/06/27 05:55:58;;;;;;;4.37;2.03;;;16.50;96.20;;;17.33;99.81;98585.31;5031324;28;20457;-84
2023/06/27 05:58:27;;;;;;;5.67;1.93;;;16.50;96.20;;;17.41;99.34;98577.94;5030335;28;20470;-85
2023/06/27 06:00:56;;;;;;;4.23;2.23;;;16.50;96.20;;;17.46;98.95;98572.78;5020974;28;20481;-85
2023/06/27 06:03:25;;;;;;;3.60;2.50;;;16.60;96.00;;;17.50;98.42;98581.09;5030007;28;20492;-85
2023/06/27 06:05:55;;;;;;;3.90;2.40;;;16.70;96.10;;;17.48;98.53;98580.50;5030955;28;20477;-86
2023/06/27 06:08:24;;;;;;;4.07;2.20;;;16.80;95.60;;;17.48;98.96;98580.50;5029874;28;20487;-85
2023/06/27 06:10:54;;;;;;;5.33;2.30;;;16.80;95.60;;;17.49;98.98;98588.22;5030715;28;20481;-85
2023/06/27 06:13:23;;;;;;;3.50;2.07;;;16.80;95.70;;;17.55;98.85;98579.44;5029367;28;20501;-85
2023/06/27 06:15:52;;;;;;;12.27;2.40;;;16.90;95.70;;;17.59;98.85;98583.28;5028240;28;20458;-86
2023/06/27 06:18:21;;;;;;;4.37;2.10;;;16.90;95.60;;;17.62;98.68;98575.94;5028912;28;20525;-85
2023/06/27 06:20:50;;;;;;;4.83;2.40;;;17.00;95.70;;;17.63;99.01;98578.38;5028809;28;20462;-85
2023/06/27 06:23:22;;;;;;;3.10;2.50;;;17.00;95.60;;;17.71;98.95;98593.13;5028214;28;21543;-85
2023/06/27 06:25:51;;;;;;;12.07;2.47;;;17.10;95.60;;;17.77;98.55;98585.13;5028989;28;20467;-85
2023/06/27 06:28:19;;;;;;;7.23;3.20;;;17.10;95.70;;;17.85;97.96;98570.78;5029444;28;20485;-85
2023/06/27 06:30:49;;;;;;;4.17;2.30;;;17.10;95.60;;;17.92;97.28;98567.06;5028760;28;20472;-85
2023/06/27 06:33:19;;;;;;;5.10;2.60;;;17.20;95.60;;;18.00;96.63;98574.72;5029490;28;20581;-86
2023/06/27 06:35:49;;;;;;;5.17;2.20;;;17.20;95.50;;;18.05;96.11;98572.19;5029363;28;21063;-86
2023/06/27 06:38:18;;;;;;;6.47;2.77;;;17.30;95.50;;;18.11;95.84;98575.81;5030099;28;20473;-85
2023/06/27 06:40:49;;;;;;;6.30;2.47;;;17.40;95.40;;;18.16;95.35;98573.28;5031978;28;20547;-86
2023/06/27 06:43:18;;;;;;;3.90;1.90;;;17.40;95.20;;;18.25;94.69;98571.16;5029520;28;20481;-84
2023/06/27 06:45:49;;;;;;;5.30;2.20;;;17.50;95.20;;;18.31;94.29;98575.56;5028049;28;20458;-86
2023/06/27 06:48:19;;;;;;;7.67;2.47;;;17.50;95.10;;;18.35;94.13;98574.88;5027217;28;21055;-84
2023/06/27 06:50:48;;;;;;;10.83;2.50;;;17.60;95.20;;;18.40;93.96;98575.00;5027412;28;20473;-85
2023/06/27 06:53:17;;;;;;;10.67;2.17;;;17.70;95.10;;;18.45;93.65;98577.00;5029022;28;20520;-85
2023/06/27 06:55:48;;;;;;;4.30;2.10;;;17.70;94.80;;;18.49;92.09;98570.22;5028444;28;20473;-85
2023/06/27 06:58:17;;;;;;;2.90;1.63;;;17.70;94.30;;;18.55;90.14;98572.00;5029667;28;20493;-85
2023/06/27 07:00:46;;;;;;;3.67;2.10;;;17.70;94.20;;;18.63;90.74;98573.53;5028947;28;20458;-85
2023/06/27 07:03:15;;;;;;;9.50;2.20;;;17.80;94.80;;;18.68;90.81;98555.91;5026726;28;20525;-85
2023/06/27 07:05:45;;;;;;;5.60;2.10;;;17.90;94.60;;;18.76;90.09;98547.66;5029252;28;20901;-85
2023/06/27 07:08:14;;;;;;;3.80;2.03;;;17.90;94.20;;;18.85;89.36;98553.41;5029629;28;20486;-84
2023/06/27 07:10:43;;;;;;;4.40;1.80;;;18.00;94.40;;;18.88;86.13;98555.63;5027522;28;20566;-85
2023/06/27 07:13:21;;;;;;;5.47;1.50;;;18.10;93.40;;;18.92;82.65;98552.28;5003206;28;20579;-86
2023/06/27 07:15:50;;;;;;;4.03;1.80;;;18.20;92.00;;;19.00;82.39;98548.50;4977382;28;20469;-86
2023/06/27 07:18:19;;;;;;;15.87;2.10;;;18.20;92.60;;;19.08;82.84;98548.16;4980792;28;20865;-87
2023/06/27 07:20:47;;;;;;;2.70;1.50;;;18.30;92.50;;;19.16;81.56;98537.22;4976182;28;20464;-86
2023/06/27 07:23:16;;;;;;;9.40;1.90;;;18.30;92.00;;;19.23;80.30;98542.44;4977326;28;20464;-86
2023/06/27 07:25:45;;;;;;;8.20;1.80;;;18.40;91.90;;;19.32;79.99;98531.22;4977455;28;20460;-85
2023/06/27 07:28:14;;;;;;;6.23;1.80;;;18.50;92.10;;;19.41;77.65;98534.34;4981123;28;20496;-86
2023/06/27 07:30:45;;;;;;;5.27;1.63;;;18.60;91.30;;;19.48;78.26;98519.94;4983137;28;20815;-85
2023/06/27 07:33:15;;;;;;;3.47;1.83;;;18.70;91.40;;;19.59;78.08;98521.78;4982168;28;20489;-85
2023/06/27 07:35:47;;;;;;;3.00;1.70;;;18.70;91.40;;;19.68;76.94;98530.19;4981581;28;20481;-85
2023/06/27 07:38:16;;;;;;;8.63;1.80;;;18.90;91.30;;;19.75;75.67;98535.38;4982352;28;20621;-86
2023/06/27 07:40:45;;;;;;;3.13;1.97;;;19.00;91.20;;;19.81;74.68;98534.44;4981996;28;20528;-86
2023/06/27 07:43:14;;;;;;;5.80;1.80;;;19.10;91.10;;;19.87;74.58;98534.31;4984067;28;20861;-86
2023/06/27 07:45:45;;;;;;;8.70;2.03;;;19.10;90.70;;;19.95;74.58;98533.16;4982374;28;20492;-86
2023/06/27 07:48:13;;;;;;;13.07;2.00;;;19.20;90.80;;;19.96;73.14;98534.75;4982767;28;20479;-86
2023/06/27 07:50:42;;;;;;;2.80;1.73;;;19.30;90.50;;;20.01;73.52;98529.53;4980567;28;20456;-86
2023/06/27 07:53:12;;;;;;;6.07;1.60;;;19.30;90.50;;;20.07;72.83;98525.94;4982121;28;21005;-86
2023/06/27 07:55:41;;;;;;;9.23;2.00;;;19.30;89.60;;;20.05;68.01;98528.03;4985431;28;20464;-86
2023/06/27 07:58:10;;;;;;;2.97;1.60;;;19.40;87.90;;;20.07;68.63;98533.91;4982382;28;21046;-86
2023/06/27 08:00:39;;;;;;;9.03;2.20;;;19.40;88.70;;;20.08;69.79;98536.34;4980903;28;20460;-86
2023/06/27 08:03:10;;;;;;;5.53;1.83;;;19.40;90.00;;;20.08;66.24;98522.25;4984423;28;20496;-86
2023/06/27 08:05:39;;;;;;;3.43;1.70;;;19.40;86.50;;;20.12;65.06;98517.28;4980345;28;20466;-86
2023/06/27 08:08:12;;;;;;;8.73;1.87;;;19.40;86.50;;;20.15;64.99;98514.94;4981571;28;20489;-86
2023/06/27 08:10:41;;;;;;;11.73;2.50;;;19.40;85.30;;;20.15;63.90;98519.44;4975362;28;20546;-86
2023/06/27 08:13:10;;;;;;;3.10;1.67;;;19.50;85.70;;;20.19;63.84;98523.25;4978532;28;20527;-86
2023/06/27 08:15:39;;;;;;;2.33;1.40;;;19.50;86.10;;;20.21;63.78;98516.66;4976629;28;20965;-86
2023/06/27 08:18:09;;;;;;;3.50;1.93;;;19.60;86.20;;;20.21;61.81;98515.84;4977900;28;20475;-85
2023/06/27 08:20:38;;;;;;;6.63;1.60;;;19.70;84.40;;;20.31;62.44;98518.72;4979956;28;20500;-85
2023/06/27 08:23:07;;;;;;;4.13;1.50;;;19.60;84.70;;;20.37;61.79;98517.78;4970015;28;20472;-86
2023/06/27 08:25:36;;;;;;;2.00;1.20;;;19.60;83.50;;;20.41;60.13;98513.63;4962353;28;21394;-86
2023/06/27 08:28:07;;;;;;;3.60;1.30;;;19.70;83.50;;;20.46;60.54;98517.16;4966515;28;20561;-86
2023/06/27 08:30:38;;;;;;;6.83;1.80;;;19.70;84.10;;;20.44;64.34;98519.22;4969373;28;21471;-86
2023/06/27 08:33:09;;;;;;;4.00;1.40;;;19.80;87.30;;;20.49;64.98;98516.69;4967102;28;20512;-86
2023/06/27 08:35:39;;;;;;;3.77;2.17;;;19.70;87.70;;;20.56;65.15;98517.34;4967391;28;20482;-86
2023/06/27 08:38:11;;;;;;;3.50;1.77;;;19.80;87.80;;;20.59;65.45;98511.53;4967545;28;20472;-86
2023/06/27 08:40:43;;;;;;;4.30;1.77;;;19.80;87.80;;;20.62;65.85;98510.25;4965807;28;20489;-86
2023/06/27 08:43:12;;;;;;;3.77;1.47;;;19.90;88.20;;;20.64;65.77;98504.69;4972193;28;20899;-86
2023/06/27 08:45:41;;;;;;;6.30;2.10;;;20.00;87.70;;;20.71;65.42;98508.00;4968331;28;20955;-85
2023/06/27 08:48:16;;;;;;;6.07;1.83;;;20.00;87.70;;;20.77;65.24;98499.06;4966204;28;20959;-86
2023/06/27 08:50:45;;;;;;;3.80;1.57;;;19.90;87.00;;;20.75;60.09;98496.66;4968532;28;20508;-83
2023/06/27 08:53:17;;;;;;;4.37;2.00;;;20.00;83.20;;;20.82;57.92;98499.16;4964017;28;21015;-86
2023/06/27 08:55:54;;;;;;;4.13;1.30;;;20.10;81.90;;;20.88;55.72;98498.19;4968234;28;20527;-86
2023/06/27 08:58:29;;;;;;;4.67;1.47;;;20.20;80.60;;;20.89;51.34;98497.97;4967035;28;20479;-85
2023/06/27 09:01:01;;;;;;;2.97;1.43;;;20.30;76.80;;;20.94;50.98;98494.56;4962966;28;20465;-86
2023/06/27 09:03:32;;;;;;;4.90;1.70;;;20.30;75.80;;;20.95;50.44;98498.84;4966268;28;20481;-86
2023/06/27 09:06:05;;;;;;;3.57;1.73;;;20.20;76.00;;;21.00;50.90;98497.03;4962325;28;20465;-85
2023/06/27 09:08:34;;;;;;;7.47;1.70;;;20.30;76.50;;;21.05;50.54;98499.00;4961048;28;21041;-86
2023/06/27 09:11:08;;;;;;;6.90;1.63;;;20.30;75.90;;;21.08;49.64;98499.31;4960989;28;20473;-87
2023/06/27 09:13:39;;;;;;;2.50;1.37;;;20.40;75.60;;;21.10;48.93;98496.44;4961774;28;20493;-86
2023/06/27 09:16:09;;;;;;;5.47;2.07;;;20.50;75.00;;;21.12;48.99;98494.34;4963263;28;20495;-86
2023/06/27 09:18:41;;;;;;;2.40;1.40;;;20.60;75.30;;;21.21;50.70;98492.88;4963175;28;20561;-85
2023/06/27 09:21:10;;;;;;;2.70;1.60;;;20.60;76.90;;;21.18;49.83;98498.69;4962380;28;21058;-86
2023/06/27 09:23:41;;;;;;;4.30;1.57;;;20.70;76.10;;;21.16;50.26;98498.13;4960723;28;20826;-86
2023/06/27 09:26:11;;;;;;;4.03;1.50;;;20.70;76.20;;;21.16;49.88;98492.00;4963350;28;20484;-85
2023/06/27 09:28:49;;;;;;;2.77;1.60;;;20.70;76.00;;;21.25;51.01;98494.00;4964207;28;20477;-86
2023/06/27 09:31:19;;;;;;;3.67;1.50;;;20.70;77.00;;;21.33;50.82;98493.59;4962770;28;20473;-86
2023/06/27 09:33:50;;;;;;;5.73;1.30;;;20.70;77.20;;;21.40;50.83;98488.09;4963182;28;20580;-85
2023/06/27 09:36:32;;;;;;;4.20;1.60;;;20.70;77.00;;;21.39;48.14;98494.44;4964927;28;20566;-86
2023/06/27 09:39:05;;;;;;;5.90;1.73;;;20.70;73.90;;;21.43;48.27;98507.03;4968158;28;21024;-86
2023/06/27 09:41:46;;;;;;;4.00;2.07;;;20.80;73.90;;;21.46;46.61;98495.88;4963441;28;20511;-86
2023/06/27 09:44:17;;;;;;;2.43;1.27;;;20.90;73.50;;;21.54;46.87;98492.81;4964395;28;20465;-86
2023/06/27 09:46:49;;;;;;;3.60;1.87;;;20.90;73.50;;;21.58;47.93;98482.47;4964931;28;20883;-85
2023/06/27 09:49:22;;;;;;;4.20;1.70;;;21.00;74.50;;;21.52;46.81;98492.25;4966035;28;20605;-86
2023/06/27 09:51:53;;;;;;;3.20;1.90;;;21.00;73.10;;;21.52;46.73;98494.91;4967417;28;20512;-86
2023/06/27 09:54:26;;;;;;;1.93;1.40;;;21.00;72.60;;;21.59;47.99;98494.72;4963486;28;20500;-86
2023/06/27 09:56:56;;;;;;;2.40;1.30;;;21.10;74.70;;;21.54;49.68;98487.50;4961065;28;20973;-86
2023/06/27 09:59:29;;;;;;;5.40;1.70;;;21.10;76.20;;;21.54;50.38;98494.66;4963450;28;20837;-86
2023/06/27 10:01:58;;;;;;;5.30;1.90;;;21.20;76.70;;;21.46;50.98;98501.22;4965712;28;20995;-86
2023/06/27 10:04:28;;;;;;;4.80;1.83;;;21.10;77.40;;;21.52;50.71;98489.56;4960362;28;20536;-85
2023/06/27 10:07:10;;;;;;;6.33;1.50;;;21.10;77.10;;;21.61;50.71;98499.81;4960514;28;20473;-88
2023/06/27 10:09:40;;;;;;;10.13;1.60;;;21.00;77.50;;;21.65;50.06;98501.75;4961046;28;20492;-86
2023/06/27 10:12:14;;;;;;;2.17;1.43;;;21.00;76.60;;;21.73;50.11;98495.19;4959756;28;20515;-87
2023/06/27 10:14:48;;;;;;;3.33;1.60;;;21.10;76.80;;;21.80;50.11;98501.91;4959723;28;20493;-86
2023/06/27 10:17:18;;;;;;;14.97;1.90;;;21.20;77.10;;;21.88;50.00;98498.00;4958742;28;20462;-85
2023/06/27 10:19:50;;;;;;;3.47;1.40;;;21.20;76.70;;;21.97;49.87;98491.25;4958856;28;20534;-85
2023/06/27 10:22:21;;;;;;;5.17;1.50;;;21.20;77.10;;;22.02;49.84;98489.44;4961608;28;20461;-85
2023/06/27 10:24:54;;;;;;;2.73;1.60;;;21.30;77.10;;;21.97;49.79;98500.03;4961280;28;20469;-85
2023/06/27 10:27:27;;;;;;;5.50;1.90;;;21.40;77.00;;;21.96;49.99;98492.28;4962973;28;20997;-85
2023/06/27 10:29:57;;;;;;;5.13;2.00;;;21.40;76.70;;;21.97;49.28;98501.91;4964251;28;20547;-86